Time;durP1;ratioP1;P1;durP2;ratioP2;P2;SDS_P1;SDS_P2;PMS_P1;PMS_P2;Temp;Humidity;BMP_temperature;BMP_pressure;BME280_temperature;BME280_humidity;BME280_pressure;Samples;Min_cycle;Max_cycle;Signal;HPM_P1;HPM_P2
2023/03/06 00:02:25;;;;;;;25.97;14.93;;;-2.70;99.90;;;-3.05;75.99;99224.94;6297735;22;20559;-68
2023/03/06 00:04:55;;;;;;;27.23;15.57;;;-2.80;99.90;;;-3.05;76.18;99224.94;6295669;22;20526;-68
2023/03/06 00:07:24;;;;;;;30.93;15.80;;;-2.70;99.90;;;-3.06;76.06;99225.72;6296280;22;20186;-67
2023/03/06 00:09:52;;;;;;;29.07;15.47;;;-2.80;99.90;;;-3.08;76.35;99217.28;6296740;22;20226;-66
2023/03/06 00:12:22;;;;;;;30.60;16.60;;;-2.80;99.90;;;-3.08;76.49;99223.97;6296799;22;20177;-66
2023/03/06 00:14:51;;;;;;;29.50;16.57;;;-2.80;99.90;;;-3.05;76.65;99226.59;6296945;22;20195;-67
2023/03/06 00:17:20;;;;;;;30.27;16.17;;;-2.80;99.90;;;-3.07;76.59;99221.50;6296766;22;20262;-67
2023/03/06 00:19:48;;;;;;;30.03;16.37;;;-2.80;99.90;;;-3.06;76.90;99233.28;6296601;22;20183;-68
2023/03/06 00:22:17;;;;;;;27.77;16.20;;;-2.80;99.90;;;-3.07;76.92;99224.00;6296326;22;20177;-67
2023/03/06 00:24:45;;;;;;;26.10;15.33;;;-2.80;99.90;;;-3.07;77.16;99229.06;6296609;22;20161;-68
2023/03/06 00:27:16;;;;;;;27.37;15.80;;;-2.80;99.90;;;-3.07;77.11;99230.72;6270471;22;20553;-67
2023/03/06 00:29:47;;;;;;;27.07;14.97;;;-2.80;99.90;;;-3.07;76.92;99230.72;6296941;22;20223;-68
2023/03/06 00:32:16;;;;;;;27.47;15.47;;;-2.80;99.90;;;-3.07;77.21;99225.69;6296668;22;20161;-66
2023/03/06 00:34:49;;;;;;;27.77;15.57;;;-2.90;99.90;;;-3.05;77.30;99226.59;6296055;22;20173;-68
2023/03/06 00:37:18;;;;;;;26.20;14.20;;;-2.80;99.90;;;-3.05;76.86;99236.69;6296722;22;20219;-68
2023/03/06 00:39:48;;;;;;;22.80;14.20;;;-2.80;99.90;;;-3.05;77.45;99235.00;6296199;22;20233;-69
2023/03/06 00:42:18;;;;;;;26.93;14.87;;;-2.80;99.90;;;-3.06;77.21;99233.28;6296564;22;20169;-67
2023/03/06 00:44:48;;;;;;;26.43;15.97;;;-2.80;99.90;;;-3.07;77.15;99229.06;6296610;22;20199;-66
2023/03/06 00:47:17;;;;;;;24.53;14.40;;;-2.90;99.90;;;-3.05;76.90;99229.97;6295566;22;20173;-67
2023/03/06 00:49:46;;;;;;;26.87;15.10;;;-2.80;99.90;;;-3.05;76.87;99232.50;6295673;22;20176;-66
2023/03/06 00:52:14;;;;;;;29.13;14.83;;;-2.80;99.90;;;-3.05;77.25;99227.44;6295635;22;20173;-65
2023/03/06 00:54:43;;;;;;;26.77;15.10;;;-2.90;99.90;;;-3.03;76.89;99232.53;6269829;22;20173;-67
2023/03/06 00:57:12;;;;;;;29.57;15.80;;;-2.80;99.90;;;-3.03;76.97;99230.00;6295855;22;20197;-67
2023/03/06 00:59:41;;;;;;;26.60;15.50;;;-2.80;99.90;;;-3.06;76.71;99230.75;6294949;22;20575;-68
2023/03/06 01:02:12;;;;;;;26.03;14.70;;;-2.80;99.90;;;-3.07;76.78;99224.00;6295396;22;20183;-67
2023/03/06 01:04:40;;;;;;;28.80;15.70;;;-2.90;99.90;;;-3.08;77.34;99216.44;6294520;22;20201;-67
2023/03/06 01:07:09;;;;;;;24.97;14.97;;;-2.80;99.90;;;-3.06;77.34;99223.19;6295199;22;20172;-68
2023/03/06 01:09:38;;;;;;;27.40;14.83;;;-2.80;99.90;;;-3.11;76.74;99212.13;6294496;22;20545;-68
2023/03/06 01:12:08;;;;;;;26.27;13.53;;;-2.90;99.90;;;-3.09;77.27;99218.09;6267771;22;20169;-68
2023/03/06 01:14:36;;;;;;;28.47;14.93;;;-2.90;99.90;;;-3.10;77.31;99223.06;6294428;22;20165;-65
2023/03/06 01:17:06;;;;;;;28.63;15.60;;;-2.80;99.90;;;-3.14;77.49;99217.09;6294293;22;20200;-68
2023/03/06 01:19:36;;;;;;;22.33;14.27;;;-2.80;99.90;;;-3.16;77.38;99213.69;6294260;22;20176;-69
2023/03/06 01:22:05;;;;;;;26.50;14.43;;;-2.90;99.90;;;-3.17;77.15;99212.84;6294350;22;20199;-67
2023/03/06 01:24:34;;;;;;;26.77;14.17;;;-2.90;99.90;;;-3.15;77.22;99220.41;6293981;22;20176;-67
2023/03/06 01:27:02;;;;;;;29.47;15.00;;;-2.90;99.90;;;-3.14;76.93;99221.28;6294034;22;20172;-67
2023/03/06 01:29:31;;;;;;;27.00;14.60;;;-2.90;99.90;;;-3.16;77.09;99216.19;6294229;22;20200;-66
2023/03/06 01:32:00;;;;;;;26.63;14.93;;;-2.90;99.90;;;-3.18;77.42;99216.13;6294581;22;20256;-69
2023/03/06 01:34:29;;;;;;;27.17;15.00;;;-2.90;99.90;;;-3.19;77.11;99216.09;6294719;22;20618;-67
2023/03/06 01:36:59;;;;;;;26.60;15.57;;;-2.90;99.90;;;-3.18;77.02;99215.28;6294366;22;20223;-67
2023/03/06 01:39:30;;;;;;;25.73;14.57;;;-2.90;99.90;;;-3.20;77.65;99211.88;6293990;22;20172;-67
2023/03/06 01:41:58;;;;;;;27.53;14.57;;;-3.00;99.90;;;-3.20;77.05;99210.22;6294158;22;20192;-67
2023/03/06 01:44:27;;;;;;;29.87;15.43;;;-3.00;99.90;;;-3.19;77.67;99208.53;6267328;22;20173;-67
2023/03/06 01:46:56;;;;;;;25.17;14.87;;;-3.00;99.90;;;-3.19;77.36;99209.41;6294016;22;20172;-67
2023/03/06 01:49:31;;;;;;;27.43;14.83;;;-2.90;99.90;;;-3.19;77.81;99199.31;6293453;22;20203;-66
2023/03/06 01:52:08;;;;;;;23.80;14.83;;;-2.90;99.90;;;-3.17;77.16;99202.75;6294122;22;20172;-67
2023/03/06 01:54:44;;;;;;;28.67;15.87;;;-3.00;99.90;;;-3.16;77.65;99208.66;6293644;22;20492;-67
2023/03/06 01:57:19;;;;;;;24.97;13.57;;;-3.00;99.90;;;-3.17;77.76;99197.72;6292478;22;20184;-68
2023/03/06 01:59:51;;;;;;;26.93;14.43;;;-2.90;99.90;;;-3.15;77.58;99205.31;6293259;22;20167;-67
2023/03/06 02:02:20;;;;;;;31.67;15.17;;;-2.90;99.90;;;-3.18;77.17;99193.47;6293823;22;20171;-67
2023/03/06 02:04:49;;;;;;;27.63;14.10;;;-2.90;99.90;;;-3.17;77.83;99202.75;6293453;22;20206;-67
2023/03/06 02:07:21;;;;;;;23.60;14.10;;;-2.90;99.90;;;-3.19;77.26;99195.94;6293597;22;20229;-66
2023/03/06 02:09:49;;;;;;;24.57;14.10;;;-2.90;99.90;;;-3.19;77.49;99203.50;6293445;22;20312;-65
2023/03/06 02:12:20;;;;;;;24.63;13.80;;;-2.90;99.90;;;-3.21;77.19;99195.88;6293635;22;20228;-66
2023/03/06 02:14:49;;;;;;;24.27;13.57;;;-2.90;99.90;;;-3.17;77.68;99206.91;6293467;22;20179;-66
2023/03/06 02:17:22;;;;;;;26.30;14.27;;;-3.00;99.90;;;-3.19;77.44;99198.47;6294037;22;20197;-68
2023/03/06 02:19:59;;;;;;;25.73;14.13;;;-3.00;99.90;;;-3.18;77.52;99205.22;6294134;22;20191;-65
2023/03/06 02:22:37;;;;;;;24.73;14.13;;;-2.90;99.90;;;-3.18;77.69;99200.16;6293927;22;20171;-66
2023/03/06 02:25:26;;;;;;;26.10;13.07;;;-3.00;99.90;;;-3.20;77.40;99202.66;6294309;22;20175;-68
2023/03/06 02:27:55;;;;;;;25.00;14.37;;;-3.00;99.90;;;-3.19;77.58;99201.00;6294033;22;20171;-66
2023/03/06 02:30:27;;;;;;;26.20;13.83;;;-3.00;99.90;;;-3.19;77.54;99203.50;6294312;22;20618;-67
2023/03/06 02:32:57;;;;;;;25.37;13.07;;;-3.00;99.90;;;-3.24;77.72;99194.94;6294682;22;20173;-67
2023/03/06 02:35:28;;;;;;;21.80;13.10;;;-3.00;99.90;;;-3.19;77.90;99201.00;6294209;22;20183;-67
2023/03/06 02:38:02;;;;;;;24.17;13.57;;;-3.00;99.90;;;-3.21;77.18;99205.13;6293809;22;20188;-67
2023/03/06 02:40:32;;;;;;;27.53;13.80;;;-3.00;99.90;;;-3.21;78.08;99197.56;6294173;22;20215;-66
2023/03/06 02:43:01;;;;;;;27.13;14.90;;;-3.00;99.90;;;-3.25;77.83;99195.75;6293428;22;20177;-66
2023/03/06 02:45:36;;;;;;;30.40;14.07;;;-2.90;99.90;;;-3.25;77.52;99191.56;6293040;22;20180;-68
2023/03/06 02:48:06;;;;;;;23.20;13.73;;;-3.00;99.90;;;-3.21;78.00;99202.59;6294290;22;20164;-67
2023/03/06 02:50:35;;;;;;;24.50;13.60;;;-3.00;99.90;;;-3.23;77.51;99192.47;6293862;22;20176;-67
2023/03/06 02:53:03;;;;;;;25.57;12.77;;;-3.00;99.90;;;-3.22;77.98;99200.91;6293880;22;20180;-65
2023/03/06 02:55:34;;;;;;;29.33;13.53;;;-3.00;99.90;;;-3.22;77.88;99198.38;6293767;22;20169;-66
2023/03/06 02:58:03;;;;;;;24.27;12.93;;;-3.00;99.90;;;-3.24;77.39;99195.81;6293813;22;20211;-68
2023/03/06 03:00:32;;;;;;;22.77;13.33;;;-3.00;99.90;;;-3.24;77.60;99200.88;6292780;22;20177;-65
2023/03/06 03:03:01;;;;;;;24.53;13.53;;;-3.00;99.90;;;-3.23;77.59;99192.47;6292352;22;20177;-66
2023/03/06 03:05:29;;;;;;;22.87;12.83;;;-3.00;99.90;;;-3.24;77.57;99199.97;6292879;22;20231;-68
2023/03/06 03:07:58;;;;;;;22.70;13.57;;;-3.00;99.90;;;-3.26;77.89;99192.38;6292518;22;20177;-66
2023/03/06 03:10:27;;;;;;;21.67;13.43;;;-3.00;99.90;;;-3.26;77.72;99194.06;6292491;22;20169;-66
2023/03/06 03:12:58;;;;;;;25.37;13.63;;;-3.00;99.90;;;-3.25;77.94;99195.75;6292449;22;20504;-65
2023/03/06 03:15:26;;;;;;;22.73;12.90;;;-3.00;99.90;;;-3.26;77.81;99196.56;6292554;22;20195;-66
2023/03/06 03:17:55;;;;;;;24.27;12.53;;;-3.00;99.90;;;-3.25;77.89;99188.19;6293919;22;20219;-68
2023/03/06 03:20:24;;;;;;;18.67;11.10;;;-3.00;99.90;;;-3.26;77.22;99192.38;6294292;22;20632;-66
2023/03/06 03:22:55;;;;;;;21.57;11.83;;;-3.00;99.90;;;-3.24;77.68;99188.28;6294630;22;20207;-68
2023/03/06 03:25:25;;;;;;;23.57;13.80;;;-3.00;99.90;;;-3.23;77.68;99189.13;6294470;22;20157;-66
2023/03/06 03:27:54;;;;;;;21.50;11.60;;;-3.00;99.90;;;-3.23;77.75;99196.66;6294910;22;20215;-67
2023/03/06 03:30:24;;;;;;;24.00;12.47;;;-3.00;99.90;;;-3.22;77.58;99193.34;6293674;22;20172;-67
2023/03/06 03:32:52;;;;;;;19.50;12.03;;;-3.00;99.90;;;-3.24;77.18;99190.78;6294907;22;20175;-68
2023/03/06 03:35:21;;;;;;;22.97;13.10;;;-3.00;99.90;;;-3.22;77.32;99198.38;6294840;22;20169;-66
2023/03/06 03:37:51;;;;;;;24.70;12.90;;;-3.00;99.90;;;-3.23;77.09;99192.47;6295241;22;20261;-66
2023/03/06 03:40:20;;;;;;;24.60;13.20;;;-3.00;99.90;;;-3.22;77.08;99195.84;6294662;22;20168;-68
2023/03/06 03:42:48;;;;;;;23.93;13.80;;;-3.00;99.90;;;-3.24;77.03;99188.28;6294156;22;20172;-65
2023/03/06 03:45:17;;;;;;;22.60;13.40;;;-3.00;99.90;;;-3.26;77.07;99186.50;6294748;22;20203;-68
2023/03/06 03:47:47;;;;;;;26.53;13.87;;;-3.00;99.90;;;-3.28;77.38;99194.00;6294422;22;20157;-66
2023/03/06 03:50:16;;;;;;;26.70;12.80;;;-3.10;99.90;;;-3.26;77.50;99186.50;6294544;22;20172;-67
2023/03/06 03:52:44;;;;;;;24.57;13.30;;;-3.10;99.90;;;-3.25;77.13;99188.19;6294712;22;20248;-66
2023/03/06 03:55:13;;;;;;;21.27;12.40;;;-3.00;99.90;;;-3.26;76.98;99181.47;6294663;22;20196;-66
2023/03/06 03:57:42;;;;;;;26.33;13.60;;;-3.10;99.90;;;-3.25;77.01;99183.16;6295134;22;20253;-67
2023/03/06 04:00:15;;;;;;;22.33;12.03;;;-3.00;99.90;;;-3.25;77.01;99183.16;6294632;22;20184;-66
2023/03/06 04:02:45;;;;;;;20.70;12.00;;;-3.10;99.90;;;-3.26;76.95;99186.50;6294407;22;20188;-66
2023/03/06 04:05:16;;;;;;;22.13;12.57;;;-3.00;99.90;;;-3.28;77.26;99178.88;6294056;22;20215;-66
2023/03/06 04:07:44;;;;;;;20.77;12.43;;;-3.10;99.90;;;-3.27;77.25;99179.75;6294267;22;20165;-67
2023/03/06 04:10:14;;;;;;;24.00;12.73;;;-3.10;99.90;;;-3.27;77.17;99180.63;6294252;22;20215;-66
2023/03/06 04:12:42;;;;;;;22.03;12.87;;;-3.10;99.90;;;-3.27;77.40;99170.53;6293965;22;20181;-67
2023/03/06 04:15:12;;;;;;;23.10;13.50;;;-3.10;99.90;;;-3.27;76.83;99174.72;6293800;22;20689;-67
2023/03/06 04:17:40;;;;;;;20.17;12.43;;;-3.00;99.90;;;-3.25;77.32;99175.59;6293881;22;20192;-68
2023/03/06 04:20:11;;;;;;;28.20;13.10;;;-3.10;99.90;;;-3.27;76.71;99173.06;6294135;22;20232;-66
2023/03/06 04:22:41;;;;;;;25.67;13.33;;;-3.10;99.90;;;-3.25;76.49;99178.13;6268354;22;20180;-67
2023/03/06 04:25:10;;;;;;;21.37;12.57;;;-3.10;99.90;;;-3.25;76.49;99180.66;6294426;22;20172;-66
2023/03/06 04:27:39;;;;;;;23.13;13.13;;;-3.10;99.90;;;-3.25;76.39;99183.16;6294432;22;20181;-67
2023/03/06 04:30:10;;;;;;;20.37;12.17;;;-3.10;99.90;;;-3.26;76.98;99174.75;6294691;22;20262;-67
2023/03/06 04:32:38;;;;;;;23.37;12.40;;;-3.10;99.90;;;-3.27;76.82;99175.56;6294378;22;20191;-68
2023/03/06 04:35:07;;;;;;;24.33;13.73;;;-3.00;99.90;;;-3.28;76.76;99167.97;6294790;22;20176;-66
2023/03/06 04:37:36;;;;;;;23.40;13.73;;;-3.10;99.90;;;-3.27;77.10;99164.66;6294647;22;20172;-67
2023/03/06 04:40:08;;;;;;;23.47;12.67;;;-3.10;99.90;;;-3.28;76.86;99165.44;6293761;22;20199;-64
2023/03/06 04:42:36;;;;;;;25.30;13.27;;;-3.10;99.90;;;-3.30;76.81;99172.13;6294309;22;20157;-66
2023/03/06 04:45:06;;;;;;;22.20;12.47;;;-3.10;99.90;;;-3.32;77.09;99161.97;6294155;22;20168;-65
2023/03/06 04:47:35;;;;;;;23.97;13.83;;;-3.10;99.90;;;-3.32;76.84;99168.69;6293750;22;20234;-65
2023/03/06 04:50:05;;;;;;;23.80;13.10;;;-3.10;99.90;;;-3.36;76.40;99159.31;6294087;22;20179;-65
2023/03/06 04:52:34;;;;;;;21.63;13.07;;;-3.20;99.90;;;-3.36;76.48;99164.38;6294175;22;20161;-67
2023/03/06 04:55:07;;;;;;;24.00;12.80;;;-3.20;99.90;;;-3.38;76.87;99155.94;6294533;22;20172;-66
2023/03/06 04:57:38;;;;;;;22.10;13.10;;;-3.20;99.90;;;-3.41;77.24;99155.00;6295420;22;20161;-67
2023/03/06 05:00:12;;;;;;;30.73;14.77;;;-3.20;99.90;;;-3.41;77.14;99154.16;6293749;22;20191;-65
2023/03/06 05:02:42;;;;;;;25.60;14.13;;;-3.20;99.90;;;-3.41;77.20;99154.16;6293670;22;20263;-66
2023/03/06 05:05:12;;;;;;;25.43;14.10;;;-3.20;99.90;;;-3.40;77.44;99154.19;6293692;22;20200;-65
2023/03/06 05:07:41;;;;;;;26.47;14.33;;;-3.10;99.90;;;-3.38;76.90;99158.44;6293565;22;20169;-66
2023/03/06 05:10:16;;;;;;;28.80;13.83;;;-3.20;99.90;;;-3.38;76.63;99155.94;6292962;22;20179;-67
2023/03/06 05:12:46;;;;;;;27.00;16.90;;;-3.20;99.90;;;-3.41;76.74;99152.50;6293454;22;20168;-67
2023/03/06 05:15:16;;;;;;;29.10;15.73;;;-3.20;99.90;;;-3.38;77.00;99161.81;6293300;22;20191;-65
2023/03/06 05:17:46;;;;;;;27.87;14.93;;;-3.20;99.90;;;-3.37;76.87;99160.16;6294546;22;20169;-66
2023/03/06 05:20:17;;;;;;;29.40;14.87;;;-3.20;99.90;;;-3.36;76.71;99159.31;6294434;22;20173;-67
2023/03/06 05:22:45;;;;;;;30.20;15.73;;;-3.10;99.90;;;-3.37;76.97;99152.59;6294322;22;20161;-66
2023/03/06 05:25:14;;;;;;;29.30;15.97;;;-3.10;99.90;;;-3.34;77.08;99155.19;6293117;22;20172;-65
2023/03/06 05:27:43;;;;;;;27.77;15.37;;;-3.10;99.90;;;-3.32;77.30;99156.09;6266872;22;20173;-67
2023/03/06 05:30:15;;;;;;;24.03;14.63;;;-3.10;99.90;;;-3.28;76.77;99148.66;6293230;22;20234;-66
2023/03/06 05:32:44;;;;;;;25.57;14.37;;;-3.10;99.90;;;-3.24;77.50;99150.47;6293895;22;20187;-64
2023/03/06 05:35:20;;;;;;;28.33;14.27;;;-3.00;99.90;;;-3.19;76.93;99153.13;6294352;22;20198;-65
2023/03/06 05:37:49;;;;;;;22.87;14.07;;;-3.00;99.90;;;-3.16;77.25;99149.03;6293526;22;20174;-68
2023/03/06 05:40:19;;;;;;;26.43;14.77;;;-2.90;99.90;;;-3.11;76.92;99151.66;6293116;22;20193;-67
2023/03/06 05:42:47;;;;;;;26.13;14.40;;;-2.90;99.90;;;-3.06;77.06;99152.66;6294192;22;20207;-68
2023/03/06 05:45:17;;;;;;;31.07;15.67;;;-2.80;99.90;;;-2.99;77.04;99151.16;6293991;22;20169;-67
2023/03/06 05:47:46;;;;;;;30.23;14.43;;;-2.80;99.90;;;-2.93;76.52;99153.84;6293525;22;20701;-69
2023/03/06 05:50:14;;;;;;;30.30;16.83;;;-2.70;99.90;;;-2.85;76.49;99154.06;6293802;22;20238;-65
2023/03/06 05:52:43;;;;;;;30.33;16.30;;;-2.60;99.90;;;-2.77;76.56;99152.59;6293873;22;20232;-65
2023/03/06 05:55:13;;;;;;;30.27;16.43;;;-2.60;99.90;;;-2.73;76.15;99149.34;6294752;22;20183;-66
2023/03/06 05:57:41;;;;;;;26.57;15.53;;;-2.50;99.90;;;-2.64;75.58;99157.19;6294186;22;20169;-67
2023/03/06 06:00:11;;;;;;;32.07;15.60;;;-2.40;99.90;;;-2.60;75.67;99161.47;6293980;22;20196;-67
2023/03/06 06:02:42;;;;;;;30.23;16.30;;;-2.40;99.90;;;-2.50;75.87;99165.97;6293839;22;20198;-66
2023/03/06 06:05:12;;;;;;;25.43;15.60;;;-2.30;99.90;;;-2.45;75.66;99161.88;6293715;22;20250;-67
2023/03/06 06:07:41;;;;;;;25.77;15.17;;;-2.20;99.90;;;-2.39;75.11;99160.31;6242915;22;20258;-67
2023/03/06 06:10:12;;;;;;;32.13;15.73;;;-2.20;99.90;;;-2.41;74.59;99167.00;6293364;22;20172;-66
2023/03/06 06:12:40;;;;;;;30.00;16.57;;;-2.20;99.90;;;-2.37;74.34;99158.69;6293669;22;20164;-67
2023/03/06 06:15:10;;;;;;;30.23;16.80;;;-2.00;99.90;;;-2.34;74.67;99154.59;6293554;22;20210;-66
2023/03/06 06:17:38;;;;;;;27.97;16.23;;;-2.10;99.90;;;-2.27;74.16;99158.13;6293713;22;20237;-65
2023/03/06 06:20:12;;;;;;;24.37;14.73;;;-2.00;99.90;;;-2.19;74.60;99159.16;6294270;22;20201;-67
2023/03/06 06:22:40;;;;;;;27.13;15.33;;;-2.00;99.90;;;-2.10;74.37;99163.56;6267561;22;20165;-68
2023/03/06 06:25:10;;;;;;;25.60;15.73;;;-1.90;99.90;;;-2.04;74.34;99163.75;6293321;22;20251;-67
2023/03/06 06:27:38;;;;;;;27.27;15.27;;;-1.80;99.90;;;-1.95;74.33;99163.97;6267840;22;20172;-68
2023/03/06 06:30:10;;;;;;;25.90;14.73;;;-1.70;99.90;;;-1.86;73.61;99165.84;6294669;22;20192;-69
2023/03/06 06:32:39;;;;;;;23.23;14.23;;;-1.60;99.90;;;-1.81;73.57;99162.59;6294375;22;20266;-68
2023/03/06 06:35:10;;;;;;;26.23;14.50;;;-1.50;99.90;;;-1.76;73.33;99170.31;6293606;22;20251;-66
2023/03/06 06:37:38;;;;;;;19.97;13.47;;;-1.50;99.90;;;-1.73;72.56;99166.19;6293427;22;20195;-67
2023/03/06 06:40:09;;;;;;;25.83;14.60;;;-1.40;99.90;;;-1.67;72.58;99170.50;6293663;22;20227;-67
2023/03/06 06:42:37;;;;;;;29.13;15.33;;;-1.40;99.90;;;-1.50;72.17;99161.66;6294064;22;20165;-65
2023/03/06 06:45:10;;;;;;;21.33;13.23;;;-1.20;99.90;;;-1.22;72.21;99164.75;6293679;22;20204;-67
2023/03/06 06:47:40;;;;;;;25.30;13.30;;;-1.00;99.90;;;-0.91;71.38;99166.28;6249434;23;20166;-66
2023/03/06 06:50:13;;;;;;;23.53;14.17;;;-0.70;99.90;;;-0.77;70.23;99158.97;6288337;22;20169;-66
2023/03/06 06:52:41;;;;;;;25.00;14.60;;;-0.60;99.90;;;-0.75;69.53;99163.19;6296884;22;20642;-67
2023/03/06 06:55:12;;;;;;;26.57;14.73;;;-0.60;99.90;;;-0.74;69.73;99159.00;6296677;22;20157;-67
2023/03/06 06:57:42;;;;;;;23.23;14.43;;;-0.50;99.90;;;-0.67;69.75;99155.75;6296212;22;20161;-67
2023/03/06 07:00:15;;;;;;;24.37;14.93;;;-0.40;99.90;;;-0.63;68.92;99157.53;6296714;22;20248;-66
2023/03/06 07:02:47;;;;;;;24.10;14.13;;;-0.30;99.90;;;-0.61;68.59;99155.88;6296226;22;20364;-66
2023/03/06 07:05:19;;;;;;;22.90;14.20;;;-0.30;99.90;;;-0.56;68.64;99159.34;6296233;22;20207;-66
2023/03/06 07:07:50;;;;;;;24.10;14.30;;;-0.30;99.90;;;-0.49;68.71;99145.13;6295552;22;20161;-65
2023/03/06 07:10:19;;;;;;;26.27;14.13;;;-0.20;99.90;;;-0.39;68.41;99156.28;6296341;22;20175;-66
2023/03/06 07:12:48;;;;;;;22.00;13.53;;;-0.10;99.90;;;-0.25;68.07;99142.19;6296590;22;20180;-67
2023/03/06 07:15:18;;;;;;;23.33;13.83;;;0.10;99.90;;;-0.04;67.66;99152.69;6297213;22;20175;-66
2023/03/06 07:17:46;;;;;;;25.77;14.20;;;0.30;99.90;;;0.23;67.03;99143.81;6297577;22;20179;-66
2023/03/06 07:20:20;;;;;;;30.27;14.07;;;0.50;99.90;;;0.50;66.42;99142.50;6296564;22;20185;-65
2023/03/06 07:22:49;;;;;;;26.10;13.60;;;0.80;99.90;;;0.80;66.09;99145.44;6295786;22;20161;-66
2023/03/06 07:25:19;;;;;;;25.70;13.50;;;1.10;99.90;;;1.09;65.21;99144.97;6296199;22;20191;-66
2023/03/06 07:27:54;;;;;;;21.63;13.63;;;1.40;99.90;;;1.38;64.32;99130.06;6269789;22;20165;-68
2023/03/06 07:30:24;;;;;;;23.93;13.37;;;1.70;99.90;;;1.51;63.15;99133.56;6295849;22;20240;-66
2023/03/06 07:32:55;;;;;;;21.07;13.00;;;1.80;99.90;;;1.53;62.25;99134.47;6295123;22;20167;-66
2023/03/06 07:35:26;;;;;;;23.90;12.83;;;1.90;99.90;;;1.49;61.63;99130.19;6295101;22;20157;-67
2023/03/06 07:37:54;;;;;;;19.87;12.40;;;1.90;99.90;;;1.49;61.48;99122.56;6294928;22;20165;-65
2023/03/06 07:40:23;;;;;;;22.50;13.33;;;1.90;99.90;;;1.57;62.06;99143.81;6294312;22;20704;-65
2023/03/06 07:42:54;;;;;;;22.50;11.90;;;2.00;99.90;;;1.65;61.51;99143.03;6295184;22;20236;-66
2023/03/06 07:45:40;;;;;;;22.17;13.63;;;2.00;99.90;;;1.81;61.60;99146.59;6295301;22;20168;-67
2023/03/06 07:48:09;;;;;;;24.70;12.90;;;2.20;99.90;;;1.96;60.03;99153.50;6295529;22;20172;-66
2023/03/06 07:50:40;;;;;;;25.07;14.03;;;2.30;99.90;;;2.09;59.63;99149.34;6294294;22;20173;-65
2023/03/06 07:53:09;;;;;;;23.20;13.93;;;2.50;99.90;;;2.54;59.56;99147.97;6295615;22;20164;-67
2023/03/06 07:55:41;;;;;;;24.83;12.27;;;2.90;99.90;;;2.75;58.77;99153.19;6293919;22;20228;-67
2023/03/06 07:58:09;;;;;;;19.13;10.77;;;3.00;99.90;;;2.95;58.53;99145.66;6293690;22;20196;-66
2023/03/06 08:00:38;;;;;;;19.33;10.57;;;3.20;99.90;;;3.10;57.24;99150.81;6293870;22;20207;-66
2023/03/06 08:03:06;;;;;;;20.93;12.07;;;3.40;99.90;;;3.15;56.19;99143.19;6294414;22;20173;-66
2023/03/06 08:05:36;;;;;;;18.87;11.80;;;3.30;99.90;;;3.18;57.20;99143.22;6294511;22;20208;-65
2023/03/06 08:08:06;;;;;;;17.30;10.10;;;3.40;99.90;;;3.21;56.71;99138.13;6294477;22;20230;-66
2023/03/06 08:10:35;;;;;;;16.03;9.57;;;3.50;99.90;;;3.28;55.77;99139.84;6294943;22;20707;-65
2023/03/06 08:13:04;;;;;;;17.03;10.57;;;3.50;99.90;;;3.31;55.78;99147.47;6294927;22;20176;-66
2023/03/06 08:15:33;;;;;;;16.20;9.70;;;3.60;99.90;;;3.32;54.97;99146.66;6294113;22;20614;-68
2023/03/06 08:18:01;;;;;;;15.50;9.40;;;3.50;99.90;;;3.30;55.71;99139.84;6292254;22;20529;-67
2023/03/06 08:20:30;;;;;;;15.90;9.37;;;3.50;99.90;;;3.26;55.76;99135.59;6289977;22;20193;-65
2023/03/06 08:22:59;;;;;;;19.53;9.37;;;3.40;99.90;;;3.24;54.82;99143.25;6288227;22;20180;-68
2023/03/06 08:25:29;;;;;;;15.13;9.23;;;3.40;99.90;;;3.28;56.34;99132.22;6291556;22;20230;-66
2023/03/06 08:28:00;;;;;;;15.63;9.50;;;3.50;99.90;;;3.35;55.86;99131.41;6291300;22;20176;-66
2023/03/06 08:30:30;;;;;;;14.63;9.13;;;3.50;99.90;;;3.44;55.66;99134.81;6290549;22;20157;-66
2023/03/06 08:33:00;;;;;;;16.53;9.57;;;3.60;99.90;;;3.51;55.74;99134.81;6290059;22;20199;-68
2023/03/06 08:35:28;;;;;;;15.47;9.80;;;3.70;99.90;;;3.54;55.90;99131.44;6285723;22;20606;-69
2023/03/06 08:37:57;;;;;;;18.53;10.20;;;3.80;99.90;;;3.63;55.69;99136.53;6286267;22;20470;-68
2023/03/06 08:40:29;;;;;;;19.53;10.13;;;3.80;99.90;;;3.73;55.58;99133.16;6283302;22;20585;-69
2023/03/06 08:43:00;;;;;;;15.40;9.70;;;4.00;99.90;;;3.91;55.25;99136.59;6285674;22;20165;-65
2023/03/06 08:45:29;;;;;;;13.83;8.60;;;4.10;99.90;;;4.03;54.68;99131.47;6283547;22;20165;-65
2023/03/06 08:47:57;;;;;;;15.67;9.20;;;4.20;99.90;;;4.15;54.13;99128.91;6287504;22;20176;-65
2023/03/06 08:50:26;;;;;;;14.23;9.47;;;4.30;99.90;;;4.35;54.04;99134.88;6291999;22;20778;-66
2023/03/06 08:52:54;;;;;;;16.80;8.00;;;4.50;99.90;;;4.56;53.76;99128.84;6290971;22;20181;-67
2023/03/06 08:55:23;;;;;;;14.67;8.40;;;4.70;99.90;;;4.73;53.02;99121.19;6293301;22;20219;-66
2023/03/06 08:57:51;;;;;;;12.00;7.23;;;4.90;99.90;;;4.89;53.23;99116.84;6292675;22;20180;-67
2023/03/06 09:00:21;;;;;;;13.37;7.40;;;5.10;99.90;;;5.07;52.46;99116.78;6292202;22;20200;-66
2023/03/06 09:02:50;;;;;;;11.67;7.60;;;5.30;99.90;;;5.22;51.62;99120.13;6291220;22;20244;-66
2023/03/06 09:05:19;;;;;;;14.57;8.00;;;5.40;99.90;;;5.33;51.58;99109.00;6289719;22;20204;-66
2023/03/06 09:07:47;;;;;;;12.93;7.90;;;5.60;99.90;;;5.48;50.66;99109.75;6289309;22;20497;-67
2023/03/06 09:10:19;;;;;;;13.77;8.10;;;5.70;99.90;;;5.60;51.09;99113.94;6290840;22;20173;-68
2023/03/06 09:12:48;;;;;;;16.47;7.53;;;5.80;99.90;;;5.79;50.69;99113.81;6291798;22;20279;-67
2023/03/06 09:15:23;;;;;;;9.93;6.50;;;6.00;99.90;;;6.12;49.49;99105.94;6291822;22;20165;-66
2023/03/06 09:17:56;;;;;;;12.93;7.00;;;6.30;99.90;;;6.29;48.40;99102.34;6290939;22;20157;-69
2023/03/06 09:20:25;;;;;;;10.67;6.93;;;6.50;99.90;;;6.23;47.47;99110.09;6295472;22;20252;-68
2023/03/06 09:22:53;;;;;;;10.67;7.57;;;6.40;99.90;;;6.25;46.93;99118.59;6293237;22;20203;-68
2023/03/06 09:25:22;;;;;;;14.13;7.03;;;6.40;99.90;;;6.31;47.45;99121.97;6265893;22;20172;-68
2023/03/06 09:27:51;;;;;;;12.20;7.73;;;6.40;99.90;;;6.24;46.87;99116.06;6290052;22;20187;-68
2023/03/06 09:30:40;;;;;;;11.33;7.23;;;6.30;99.90;;;6.00;47.04;99117.97;6285350;22;20160;-72
2023/03/06 09:33:09;;;;;;;14.47;8.00;;;6.10;99.90;;;5.78;47.63;99114.69;6291155;22;20191;-68
2023/03/06 09:35:47;;;;;;;14.73;8.20;;;5.90;99.90;;;5.58;48.08;99112.25;6289323;22;20169;-73
2023/03/06 09:38:15;;;;;;;12.37;8.03;;;5.70;99.90;;;5.35;48.30;99111.56;6283222;22;20464;-70
2023/03/06 09:41:01;;;;;;;13.37;7.83;;;5.40;99.90;;;5.24;49.47;99108.22;6288950;22;20200;-69
2023/03/06 09:43:35;;;;;;;13.13;7.80;;;5.40;99.90;;;5.28;49.81;99109.91;6294339;22;20169;-68
2023/03/06 09:46:20;;;;;;;12.80;8.33;;;5.40;99.90;;;5.38;49.55;99100.47;6288026;22;20167;-69
2023/03/06 09:49:09;;;;;;;15.27;8.83;;;5.40;99.90;;;5.54;49.69;99102.91;6277396;22;20171;-69
2023/03/06 09:51:57;;;;;;;15.00;8.47;;;5.60;99.90;;;5.62;49.36;99105.41;6275813;22;20193;-69
2023/03/06 09:54:38;;;;;;;12.43;7.43;;;5.60;99.90;;;5.50;48.83;99100.41;6277369;22;20224;-68
2023/03/06 09:57:19;;;;;;;14.07;7.17;;;5.50;99.90;;;5.39;48.83;99102.16;6276185;22;20222;-68
2023/03/06 09:59:52;;;;;;;10.37;6.87;;;5.50;99.90;;;5.42;48.17;99104.72;6275410;22;20160;-68
2023/03/06 10:02:31;;;;;;;11.00;6.57;;;5.50;99.90;;;5.26;48.87;99093.72;6277540;22;20219;-66
2023/03/06 10:05:08;;;;;;;9.03;5.77;;;5.30;99.90;;;5.14;48.42;99098.91;6280170;22;20220;-68
2023/03/06 10:07:45;;;;;;;15.70;6.67;;;5.20;99.90;;;4.93;49.18;99092.16;6248291;22;20178;-68
2023/03/06 10:10:22;;;;;;;12.00;5.03;;;5.10;99.90;;;4.78;48.51;99093.94;6272311;22;20161;-67
2023/03/06 10:13:02;;;;;;;9.23;4.97;;;4.90;99.90;;;4.66;49.09;99086.31;6275754;22;20590;-68
2023/03/06 10:15:34;;;;;;;5.60;3.60;;;4.80;99.90;;;4.59;49.24;99087.19;6247279;22;20160;-68
2023/03/06 10:18:05;;;;;;;7.20;5.67;;;4.80;99.90;;;4.51;49.82;99086.38;6276794;22;20179;-67
2023/03/06 10:20:42;;;;;;;10.03;5.47;;;4.70;99.90;;;4.46;50.04;99076.19;6276026;22;20435;-66
2023/03/06 10:23:41;;;;;;;10.03;5.37;;;4.60;99.90;;;4.45;49.98;99078.72;6275678;22;20210;-68
2023/03/06 10:26:16;;;;;;;11.57;5.33;;;4.70;99.90;;;4.47;50.89;99089.78;6277927;22;20214;-68
2023/03/06 10:28:52;;;;;;;8.07;5.67;;;4.70;99.90;;;4.40;49.81;99080.44;6279149;22;20188;-67